sensor_id;sensor_type;location;lat;lon;timestamp;P1;durP1;ratioP1;P2;durP2;ratioP2
2416;SDS011;1219;48.736;9.330;2022-07-29T00:01:47;11.20;;;10.17;;
2416;SDS011;1219;48.736;9.330;2022-07-29T00:04:13;11.50;;;10.30;;
2416;SDS011;1219;48.736;9.330;2022-07-29T00:06:39;11.17;;;10.03;;
2416;SDS011;1219;48.736;9.330;2022-07-29T00:09:06;10.30;;;9.30;;
2416;SDS011;1219;48.736;9.330;2022-07-29T00:11:32;10.93;;;9.83;;
2416;SDS011;1219;48.736;9.330;2022-07-29T00:13:58;9.67;;;8.97;;
2416;SDS011;1219;48.736;9.330;2022-07-29T00:16:24;10.27;;;9.47;;
2416;SDS011;1219;48.736;9.330;2022-07-29T00:18:50;9.37;;;8.70;;
2416;SDS011;1219;48.736;9.330;2022-07-29T00:21:16;10.10;;;9.30;;
2416;SDS011;1219;48.736;9.330;2022-07-29T00:23:42;9.97;;;9.17;;
2416;SDS011;1219;48.736;9.330;2022-07-29T00:26:08;11.63;;;10.63;;
2416;SDS011;1219;48.736;9.330;2022-07-29T00:28:33;9.03;;;8.33;;
2416;SDS011;1219;48.736;9.330;2022-07-29T00:30:59;10.33;;;9.60;;
2416;SDS011;1219;48.736;9.330;2022-07-29T00:33:25;10.30;;;9.57;;
2416;SDS011;1219;48.736;9.330;2022-07-29T00:35:51;10.50;;;9.57;;
2416;SDS011;1219;48.736;9.330;2022-07-29T00:38:18;9.40;;;8.80;;
2416;SDS011;1219;48.736;9.330;2022-07-29T00:40:45;11.60;;;10.07;;
2416;SDS011;1219;48.736;9.330;2022-07-29T00:43:12;10.47;;;9.60;;
2416;SDS011;1219;48.736;9.330;2022-07-29T00:45:39;10.40;;;9.50;;
2416;SDS011;1219;48.736;9.330;2022-07-29T00:48:05;9.57;;;8.90;;
2416;SDS011;1219;48.736;9.330;2022-07-29T00:50:33;10.80;;;9.27;;
2416;SDS011;1219;48.736;9.330;2022-07-29T00:52:59;9.87;;;9.00;;
2416;SDS011;1219;48.736;9.330;2022-07-29T00:55:26;10.80;;;9.90;;
2416;SDS011;1219;48.736;9.330;2022-07-29T00:57:51;10.17;;;9.33;;
2416;SDS011;1219;48.736;9.330;2022-07-29T01:00:19;10.27;;;9.30;;
2416;SDS011;1219;48.736;9.330;2022-07-29T01:02:45;10.27;;;9.40;;
2416;SDS011;1219;48.736;9.330;2022-07-29T01:05:16;9.83;;;9.03;;
2416;SDS011;1219;48.736;9.330;2022-07-29T01:07:43;9.43;;;8.80;;
2416;SDS011;1219;48.736;9.330;2022-07-29T01:10:11;11.47;;;10.47;;
2416;SDS011;1219;48.736;9.330;2022-07-29T01:12:37;10.97;;;10.00;;
2416;SDS011;1219;48.736;9.330;2022-07-29T01:15:04;10.67;;;9.67;;
2416;SDS011;1219;48.736;9.330;2022-07-29T01:20:26;9.87;;;8.97;;
2416;SDS011;1219;48.736;9.330;2022-07-29T01:30:54;10.50;;;9.60;;
2416;SDS011;1219;48.736;9.330;2022-07-29T01:33:20;10.63;;;9.70;;
2416;SDS011;1219;48.736;9.330;2022-07-29T01:36:07;12.27;;;11.17;;
2416;SDS011;1219;48.736;9.330;2022-07-29T01:38:35;11.10;;;10.10;;
2416;SDS011;1219;48.736;9.330;2022-07-29T01:41:08;12.10;;;11.10;;
2416;SDS011;1219;48.736;9.330;2022-07-29T01:43:44;11.13;;;10.10;;
2416;SDS011;1219;48.736;9.330;2022-07-29T01:46:17;11.33;;;10.33;;
2416;SDS011;1219;48.736;9.330;2022-07-29T01:48:47;10.53;;;9.40;;
2416;SDS011;1219;48.736;9.330;2022-07-29T01:51:18;11.00;;;10.10;;
2416;SDS011;1219;48.736;9.330;2022-07-29T01:53:50;10.27;;;9.43;;
2416;SDS011;1219;48.736;9.330;2022-07-29T01:56:19;11.67;;;10.40;;
2416;SDS011;1219;48.736;9.330;2022-07-29T01:58:46;10.50;;;9.60;;
2416;SDS011;1219;48.736;9.330;2022-07-29T02:01:13;9.80;;;9.00;;
2416;SDS011;1219;48.736;9.330;2022-07-29T02:03:41;11.70;;;10.60;;
2416;SDS011;1219;48.736;9.330;2022-07-29T02:06:09;10.10;;;9.10;;
2416;SDS011;1219;48.736;9.330;2022-07-29T02:08:36;13.77;;;11.10;;
2416;SDS011;1219;48.736;9.330;2022-07-29T02:11:03;11.37;;;10.37;;
2416;SDS011;1219;48.736;9.330;2022-07-29T02:13:30;12.27;;;10.47;;
2416;SDS011;1219;48.736;9.330;2022-07-29T02:15:57;12.33;;;11.30;;
2416;SDS011;1219;48.736;9.330;2022-07-29T02:18:24;11.10;;;9.97;;
2416;SDS011;1219;48.736;9.330;2022-07-29T02:20:52;11.80;;;10.70;;
2416;SDS011;1219;48.736;9.330;2022-07-29T02:23:20;11.83;;;10.73;;
2416;SDS011;1219;48.736;9.330;2022-07-29T02:25:53;11.23;;;10.37;;
2416;SDS011;1219;48.736;9.330;2022-07-29T02:28:21;10.47;;;9.57;;
2416;SDS011;1219;48.736;9.330;2022-07-29T02:30:48;11.27;;;10.17;;
2416;SDS011;1219;48.736;9.330;2022-07-29T02:33:15;11.87;;;10.90;;
2416;SDS011;1219;48.736;9.330;2022-07-29T02:35:42;10.60;;;9.50;;
2416;SDS011;1219;48.736;9.330;2022-07-29T02:38:09;11.57;;;10.60;;
2416;SDS011;1219;48.736;9.330;2022-07-29T02:40:56;10.43;;;8.90;;
2416;SDS011;1219;48.736;9.330;2022-07-29T02:43:22;10.03;;;9.33;;
2416;SDS011;1219;48.736;9.330;2022-07-29T02:45:50;11.27;;;10.27;;
2416;SDS011;1219;48.736;9.330;2022-07-29T02:48:17;10.73;;;9.80;;
2416;SDS011;1219;48.736;9.330;2022-07-29T02:50:50;10.80;;;9.90;;
2416;SDS011;1219;48.736;9.330;2022-07-29T02:53:18;9.73;;;8.73;;
2416;SDS011;1219;48.736;9.330;2022-07-29T02:58:21;8.70;;;8.00;;
2416;SDS011;1219;48.736;9.330;2022-07-29T03:00:53;9.53;;;8.83;;
2416;SDS011;1219;48.736;9.330;2022-07-29T03:03:19;10.47;;;9.40;;
2416;SDS011;1219;48.736;9.330;2022-07-29T03:05:46;10.67;;;9.70;;
2416;SDS011;1219;48.736;9.330;2022-07-29T03:08:12;11.17;;;9.83;;
2416;SDS011;1219;48.736;9.330;2022-07-29T03:10:39;10.20;;;9.30;;
2416;SDS011;1219;48.736;9.330;2022-07-29T03:13:05;9.70;;;9.00;;
2416;SDS011;1219;48.736;9.330;2022-07-29T03:15:33;10.90;;;9.90;;
2416;SDS011;1219;48.736;9.330;2022-07-29T03:17:59;10.00;;;9.00;;
2416;SDS011;1219;48.736;9.330;2022-07-29T03:20:25;10.17;;;9.23;;
2416;SDS011;1219;48.736;9.330;2022-07-29T03:22:51;9.80;;;8.90;;
2416;SDS011;1219;48.736;9.330;2022-07-29T03:25:18;9.90;;;9.20;;
2416;SDS011;1219;48.736;9.330;2022-07-29T03:27:44;9.30;;;8.60;;
2416;SDS011;1219;48.736;9.330;2022-07-29T03:30:11;11.73;;;9.40;;
2416;SDS011;1219;48.736;9.330;2022-07-29T03:32:37;9.77;;;8.93;;
2416;SDS011;1219;48.736;9.330;2022-07-29T03:35:04;9.80;;;8.90;;
2416;SDS011;1219;48.736;9.330;2022-07-29T03:37:30;10.97;;;9.13;;
2416;SDS011;1219;48.736;9.330;2022-07-29T03:39:57;9.80;;;8.97;;
2416;SDS011;1219;48.736;9.330;2022-07-29T03:42:24;8.90;;;8.30;;
2416;SDS011;1219;48.736;9.330;2022-07-29T03:44:50;9.13;;;8.43;;
2416;SDS011;1219;48.736;9.330;2022-07-29T03:47:19;10.53;;;9.53;;
2416;SDS011;1219;48.736;9.330;2022-07-29T03:49:47;10.30;;;9.20;;
2416;SDS011;1219;48.736;9.330;2022-07-29T03:52:14;10.00;;;9.00;;
2416;SDS011;1219;48.736;9.330;2022-07-29T03:54:40;9.70;;;8.90;;
2416;SDS011;1219;48.736;9.330;2022-07-29T03:57:06;9.23;;;8.43;;
2416;SDS011;1219;48.736;9.330;2022-07-29T03:59:32;10.13;;;9.23;;
2416;SDS011;1219;48.736;9.330;2022-07-29T04:01:59;9.40;;;8.70;;
2416;SDS011;1219;48.736;9.330;2022-07-29T04:04:26;10.20;;;9.07;;
2416;SDS011;1219;48.736;9.330;2022-07-29T04:06:52;9.87;;;8.97;;
2416;SDS011;1219;48.736;9.330;2022-07-29T04:09:18;9.77;;;8.73;;
2416;SDS011;1219;48.736;9.330;2022-07-29T04:11:44;9.90;;;9.10;;
2416;SDS011;1219;48.736;9.330;2022-07-29T04:14:10;8.63;;;7.80;;
2416;SDS011;1219;48.736;9.330;2022-07-29T04:16:36;9.63;;;8.60;;
2416;SDS011;1219;48.736;9.330;2022-07-29T04:19:02;8.87;;;8.27;;
2416;SDS011;1219;48.736;9.330;2022-07-29T04:21:28;10.27;;;9.37;;
2416;SDS011;1219;48.736;9.330;2022-07-29T04:23:54;9.93;;;9.03;;
2416;SDS011;1219;48.736;9.330;2022-07-29T04:26:20;15.87;;;9.40;;
2416;SDS011;1219;48.736;9.330;2022-07-29T04:28:46;10.30;;;9.17;;
2416;SDS011;1219;48.736;9.330;2022-07-29T04:31:12;11.47;;;10.37;;
2416;SDS011;1219;48.736;9.330;2022-07-29T04:33:39;10.33;;;9.43;;
2416;SDS011;1219;48.736;9.330;2022-07-29T04:36:05;10.77;;;9.90;;
2416;SDS011;1219;48.736;9.330;2022-07-29T04:38:31;12.70;;;10.50;;
2416;SDS011;1219;48.736;9.330;2022-07-29T04:43:25;13.10;;;12.03;;
2416;SDS011;1219;48.736;9.330;2022-07-29T04:45:51;15.63;;;11.33;;
2416;SDS011;1219;48.736;9.330;2022-07-29T04:48:17;13.50;;;12.20;;
2416;SDS011;1219;48.736;9.330;2022-07-29T04:50:43;11.30;;;10.30;;
2416;SDS011;1219;48.736;9.330;2022-07-29T04:53:09;10.70;;;9.70;;
2416;SDS011;1219;48.736;9.330;2022-07-29T04:55:35;10.27;;;9.40;;
2416;SDS011;1219;48.736;9.330;2022-07-29T04:58:01;11.30;;;10.40;;
2416;SDS011;1219;48.736;9.330;2022-07-29T05:00:27;11.10;;;10.10;;
2416;SDS011;1219;48.736;9.330;2022-07-29T05:02:53;13.87;;;10.63;;
2416;SDS011;1219;48.736;9.330;2022-07-29T05:05:19;13.07;;;11.70;;
2416;SDS011;1219;48.736;9.330;2022-07-29T05:07:45;12.10;;;10.90;;
2416;SDS011;1219;48.736;9.330;2022-07-29T05:10:11;12.73;;;11.53;;
2416;SDS011;1219;48.736;9.330;2022-07-29T05:12:37;12.60;;;11.27;;
2416;SDS011;1219;48.736;9.330;2022-07-29T05:15:03;11.80;;;10.90;;
2416;SDS011;1219;48.736;9.330;2022-07-29T05:17:29;10.57;;;9.80;;
2416;SDS011;1219;48.736;9.330;2022-07-29T05:19:55;10.00;;;9.20;;
2416;SDS011;1219;48.736;9.330;2022-07-29T05:22:21;10.10;;;9.30;;
2416;SDS011;1219;48.736;9.330;2022-07-29T05:24:47;10.67;;;9.67;;
2416;SDS011;1219;48.736;9.330;2022-07-29T05:27:13;11.20;;;10.20;;
2416;SDS011;1219;48.736;9.330;2022-07-29T05:29:39;8.53;;;8.00;;
2416;SDS011;1219;48.736;9.330;2022-07-29T05:32:05;11.03;;;10.03;;
2416;SDS011;1219;48.736;9.330;2022-07-29T05:34:31;9.73;;;9.03;;
2416;SDS011;1219;48.736;9.330;2022-07-29T05:36:57;9.93;;;9.13;;
2416;SDS011;1219;48.736;9.330;2022-07-29T05:39:23;10.47;;;9.37;;
2416;SDS011;1219;48.736;9.330;2022-07-29T05:41:49;10.23;;;9.50;;
2416;SDS011;1219;48.736;9.330;2022-07-29T05:44:15;11.73;;;10.73;;
2416;SDS011;1219;48.736;9.330;2022-07-29T05:46:41;11.47;;;10.20;;
2416;SDS011;1219;48.736;9.330;2022-07-29T05:49:07;10.53;;;9.77;;
2416;SDS011;1219;48.736;9.330;2022-07-29T05:51:34;11.03;;;10.13;;
2416;SDS011;1219;48.736;9.330;2022-07-29T05:54:00;10.20;;;9.20;;
2416;SDS011;1219;48.736;9.330;2022-07-29T05:56:26;10.03;;;9.00;;
2416;SDS011;1219;48.736;9.330;2022-07-29T05:58:52;10.40;;;9.50;;
2416;SDS011;1219;48.736;9.330;2022-07-29T06:01:18;10.50;;;9.60;;
2416;SDS011;1219;48.736;9.330;2022-07-29T06:03:44;9.93;;;8.93;;
2416;SDS011;1219;48.736;9.330;2022-07-29T06:06:11;9.53;;;8.80;;
2416;SDS011;1219;48.736;9.330;2022-07-29T06:08:38;9.87;;;9.07;;
2416;SDS011;1219;48.736;9.330;2022-07-29T06:11:05;9.07;;;8.30;;
2416;SDS011;1219;48.736;9.330;2022-07-29T06:13:31;8.77;;;7.97;;
2416;SDS011;1219;48.736;9.330;2022-07-29T06:15:57;9.00;;;8.30;;
2416;SDS011;1219;48.736;9.330;2022-07-29T06:18:23;8.17;;;7.63;;
2416;SDS011;1219;48.736;9.330;2022-07-29T06:20:52;8.57;;;7.87;;
2416;SDS011;1219;48.736;9.330;2022-07-29T06:23:19;8.87;;;7.97;;
2416;SDS011;1219;48.736;9.330;2022-07-29T06:25:45;8.17;;;7.57;;
2416;SDS011;1219;48.736;9.330;2022-07-29T06:28:11;8.70;;;8.00;;
2416;SDS011;1219;48.736;9.330;2022-07-29T06:30:38;7.70;;;7.10;;
2416;SDS011;1219;48.736;9.330;2022-07-29T06:33:04;8.47;;;7.67;;
2416;SDS011;1219;48.736;9.330;2022-07-29T06:35:30;6.73;;;6.13;;
2416;SDS011;1219;48.736;9.330;2022-07-29T06:37:56;6.83;;;6.23;;
2416;SDS011;1219;48.736;9.330;2022-07-29T06:40:22;8.10;;;7.40;;
2416;SDS011;1219;48.736;9.330;2022-07-29T06:43:06;7.23;;;6.63;;
2416;SDS011;1219;48.736;9.330;2022-07-29T06:45:35;6.90;;;6.30;;
2416;SDS011;1219;48.736;9.330;2022-07-29T06:48:03;7.13;;;6.53;;
2416;SDS011;1219;48.736;9.330;2022-07-29T06:50:29;7.20;;;6.50;;
2416;SDS011;1219;48.736;9.330;2022-07-29T06:52:55;7.67;;;7.07;;
2416;SDS011;1219;48.736;9.330;2022-07-29T06:55:21;5.53;;;5.23;;
2416;SDS011;1219;48.736;9.330;2022-07-29T06:57:47;6.57;;;6.07;;
2416;SDS011;1219;48.736;9.330;2022-07-29T07:00:13;5.97;;;5.57;;
2416;SDS011;1219;48.736;9.330;2022-07-29T07:02:39;5.93;;;5.43;;
2416;SDS011;1219;48.736;9.330;2022-07-29T07:05:05;5.17;;;4.87;;
2416;SDS011;1219;48.736;9.330;2022-07-29T07:07:31;6.17;;;5.77;;
2416;SDS011;1219;48.736;9.330;2022-07-29T07:09:57;5.47;;;4.97;;
2416;SDS011;1219;48.736;9.330;2022-07-29T07:12:23;5.70;;;5.17;;
2416;SDS011;1219;48.736;9.330;2022-07-29T07:14:50;6.60;;;6.00;;
2416;SDS011;1219;48.736;9.330;2022-07-29T07:17:16;5.20;;;4.70;;
2416;SDS011;1219;48.736;9.330;2022-07-29T07:19:41;5.03;;;4.70;;
2416;SDS011;1219;48.736;9.330;2022-07-29T07:22:07;5.60;;;5.20;;
2416;SDS011;1219;48.736;9.330;2022-07-29T07:24:33;6.60;;;6.10;;
2416;SDS011;1219;48.736;9.330;2022-07-29T07:26:59;5.57;;;5.10;;
2416;SDS011;1219;48.736;9.330;2022-07-29T07:29:25;6.27;;;5.73;;
2416;SDS011;1219;48.736;9.330;2022-07-29T07:31:51;6.00;;;5.60;;
2416;SDS011;1219;48.736;9.330;2022-07-29T07:34:17;7.30;;;5.33;;
2416;SDS011;1219;48.736;9.330;2022-07-29T07:36:43;6.33;;;5.73;;
2416;SDS011;1219;48.736;9.330;2022-07-29T07:39:09;5.23;;;4.80;;
2416;SDS011;1219;48.736;9.330;2022-07-29T07:41:35;6.17;;;5.47;;
2416;SDS011;1219;48.736;9.330;2022-07-29T07:44:01;6.60;;;5.97;;
2416;SDS011;1219;48.736;9.330;2022-07-29T07:46:27;5.47;;;4.80;;
2416;SDS011;1219;48.736;9.330;2022-07-29T07:48:53;5.60;;;5.00;;
2416;SDS011;1219;48.736;9.330;2022-07-29T07:51:19;5.40;;;5.00;;
2416;SDS011;1219;48.736;9.330;2022-07-29T07:53:45;5.00;;;4.67;;
2416;SDS011;1219;48.736;9.330;2022-07-29T07:56:14;5.70;;;5.30;;
2416;SDS011;1219;48.736;9.330;2022-07-29T07:58:40;5.30;;;4.90;;
2416;SDS011;1219;48.736;9.330;2022-07-29T08:01:07;5.70;;;5.30;;
2416;SDS011;1219;48.736;9.330;2022-07-29T08:03:33;5.80;;;5.40;;
2416;SDS011;1219;48.736;9.330;2022-07-29T08:05:59;5.10;;;4.70;;
2416;SDS011;1219;48.736;9.330;2022-07-29T08:08:25;5.43;;;5.03;;
2416;SDS011;1219;48.736;9.330;2022-07-29T08:10:51;5.07;;;4.67;;
2416;SDS011;1219;48.736;9.330;2022-07-29T08:13:17;5.13;;;4.83;;
2416;SDS011;1219;48.736;9.330;2022-07-29T08:15:43;5.07;;;4.77;;
2416;SDS011;1219;48.736;9.330;2022-07-29T08:18:10;5.50;;;5.13;;
2416;SDS011;1219;48.736;9.330;2022-07-29T08:20:36;5.37;;;4.80;;
2416;SDS011;1219;48.736;9.330;2022-07-29T08:23:04;5.10;;;4.70;;
2416;SDS011;1219;48.736;9.330;2022-07-29T08:25:31;5.10;;;4.80;;
2416;SDS011;1219;48.736;9.330;2022-07-29T08:27:57;4.77;;;4.37;;
2416;SDS011;1219;48.736;9.330;2022-07-29T08:30:23;6.93;;;4.67;;
2416;SDS011;1219;48.736;9.330;2022-07-29T08:32:49;4.97;;;4.67;;
2416;SDS011;1219;48.736;9.330;2022-07-29T08:35:17;5.00;;;4.60;;
2416;SDS011;1219;48.736;9.330;2022-07-29T08:37:43;4.90;;;4.60;;
2416;SDS011;1219;48.736;9.330;2022-07-29T08:40:09;5.57;;;4.63;;
2416;SDS011;1219;48.736;9.330;2022-07-29T08:42:35;4.90;;;4.53;;
2416;SDS011;1219;48.736;9.330;2022-07-29T08:45:02;5.57;;;4.50;;
2416;SDS011;1219;48.736;9.330;2022-07-29T08:47:28;4.97;;;4.47;;
2416;SDS011;1219;48.736;9.330;2022-07-29T08:49:55;5.83;;;5.40;;
2416;SDS011;1219;48.736;9.330;2022-07-29T08:52:21;5.60;;;5.30;;
2416;SDS011;1219;48.736;9.330;2022-07-29T08:54:47;5.50;;;5.00;;
2416;SDS011;1219;48.736;9.330;2022-07-29T08:57:14;4.73;;;4.43;;
2416;SDS011;1219;48.736;9.330;2022-07-29T08:59:40;4.63;;;4.30;;
2416;SDS011;1219;48.736;9.330;2022-07-29T09:02:10;4.83;;;4.53;;
2416;SDS011;1219;48.736;9.330;2022-07-29T09:04:38;10.10;;;4.47;;
2416;SDS011;1219;48.736;9.330;2022-07-29T09:07:04;4.83;;;4.50;;
2416;SDS011;1219;48.736;9.330;2022-07-29T09:09:31;4.20;;;4.00;;
2416;SDS011;1219;48.736;9.330;2022-07-29T09:11:58;5.10;;;4.80;;
2416;SDS011;1219;48.736;9.330;2022-07-29T09:14:24;5.50;;;5.10;;
2416;SDS011;1219;48.736;9.330;2022-07-29T09:16:52;5.27;;;4.87;;
2416;SDS011;1219;48.736;9.330;2022-07-29T09:21:50;5.53;;;5.20;;
2416;SDS011;1219;48.736;9.330;2022-07-29T09:24:22;5.50;;;5.00;;
2416;SDS011;1219;48.736;9.330;2022-07-29T09:26:48;5.10;;;4.80;;
2416;SDS011;1219;48.736;9.330;2022-07-29T09:29:22;5.17;;;4.87;;
2416;SDS011;1219;48.736;9.330;2022-07-29T09:31:50;4.63;;;4.33;;
2416;SDS011;1219;48.736;9.330;2022-07-29T09:34:20;5.57;;;5.20;;
2416;SDS011;1219;48.736;9.330;2022-07-29T09:36:48;5.43;;;4.20;;
2416;SDS011;1219;48.736;9.330;2022-07-29T09:39:14;4.53;;;4.23;;
2416;SDS011;1219;48.736;9.330;2022-07-29T09:41:48;5.67;;;5.23;;
2416;SDS011;1219;48.736;9.330;2022-07-29T09:44:14;5.20;;;4.80;;
2416;SDS011;1219;48.736;9.330;2022-07-29T09:46:40;4.80;;;4.50;;
2416;SDS011;1219;48.736;9.330;2022-07-29T09:49:17;5.10;;;4.70;;
2416;SDS011;1219;48.736;9.330;2022-07-29T09:51:43;5.03;;;4.60;;
2416;SDS011;1219;48.736;9.330;2022-07-29T09:54:22;4.93;;;4.43;;
2416;SDS011;1219;48.736;9.330;2022-07-29T09:56:49;5.50;;;5.07;;
2416;SDS011;1219;48.736;9.330;2022-07-29T09:59:15;4.77;;;4.47;;
2416;SDS011;1219;48.736;9.330;2022-07-29T10:01:42;5.70;;;4.77;;
2416;SDS011;1219;48.736;9.330;2022-07-29T10:04:08;4.97;;;4.57;;
2416;SDS011;1219;48.736;9.330;2022-07-29T10:06:34;5.33;;;4.93;;
2416;SDS011;1219;48.736;9.330;2022-07-29T10:09:06;4.50;;;4.20;;
2416;SDS011;1219;48.736;9.330;2022-07-29T10:11:33;5.20;;;4.80;;
2416;SDS011;1219;48.736;9.330;2022-07-29T10:13:59;5.53;;;4.10;;
2416;SDS011;1219;48.736;9.330;2022-07-29T10:16:27;5.20;;;4.90;;
2416;SDS011;1219;48.736;9.330;2022-07-29T10:18:57;6.23;;;5.00;;
2416;SDS011;1219;48.736;9.330;2022-07-29T10:21:23;4.33;;;4.03;;
2416;SDS011;1219;48.736;9.330;2022-07-29T10:23:50;5.10;;;4.70;;
2416;SDS011;1219;48.736;9.330;2022-07-29T10:26:16;4.93;;;4.43;;
2416;SDS011;1219;48.736;9.330;2022-07-29T10:28:42;5.17;;;4.63;;
2416;SDS011;1219;48.736;9.330;2022-07-29T10:31:10;5.50;;;5.07;;
2416;SDS011;1219;48.736;9.330;2022-07-29T10:33:43;4.87;;;4.53;;
2416;SDS011;1219;48.736;9.330;2022-07-29T10:36:20;5.03;;;4.43;;
2416;SDS011;1219;48.736;9.330;2022-07-29T10:43:59;5.00;;;4.60;;
2416;SDS011;1219;48.736;9.330;2022-07-29T10:46:26;5.20;;;4.80;;
2416;SDS011;1219;48.736;9.330;2022-07-29T10:49:05;5.53;;;4.70;;
2416;SDS011;1219;48.736;9.330;2022-07-29T10:54:19;5.00;;;4.50;;
2416;SDS011;1219;48.736;9.330;2022-07-29T10:59:36;5.13;;;4.23;;
2416;SDS011;1219;48.736;9.330;2022-07-29T11:02:02;9.50;;;4.73;;
2416;SDS011;1219;48.736;9.330;2022-07-29T11:07:14;4.70;;;4.40;;
2416;SDS011;1219;48.736;9.330;2022-07-29T11:09:41;9.13;;;4.70;;
2416;SDS011;1219;48.736;9.330;2022-07-29T11:12:45;6.93;;;5.60;;
2416;SDS011;1219;48.736;9.330;2022-07-29T11:15:21;4.80;;;4.50;;
2416;SDS011;1219;48.736;9.330;2022-07-29T11:23:29;5.47;;;5.00;;
2416;SDS011;1219;48.736;9.330;2022-07-29T11:28:51;6.00;;;5.60;;
2416;SDS011;1219;48.736;9.330;2022-07-29T11:39:29;5.83;;;3.33;;
2416;SDS011;1219;48.736;9.330;2022-07-29T11:42:32;9.00;;;5.83;;
2416;SDS011;1219;48.736;9.330;2022-07-29T11:44:59;8.70;;;5.10;;
2416;SDS011;1219;48.736;9.330;2022-07-29T11:47:26;3.47;;;3.23;;
2416;SDS011;1219;48.736;9.330;2022-07-29T11:49:53;4.50;;;3.77;;
2416;SDS011;1219;48.736;9.330;2022-07-29T11:52:19;6.67;;;5.00;;
2416;SDS011;1219;48.736;9.330;2022-07-29T11:54:49;4.00;;;3.70;;
2416;SDS011;1219;48.736;9.330;2022-07-29T11:57:18;4.67;;;4.27;;
2416;SDS011;1219;48.736;9.330;2022-07-29T11:59:46;5.70;;;3.87;;
2416;SDS011;1219;48.736;9.330;2022-07-29T12:02:12;8.63;;;4.87;;
2416;SDS011;1219;48.736;9.330;2022-07-29T12:04:48;9.43;;;4.90;;
2416;SDS011;1219;48.736;9.330;2022-07-29T12:07:15;4.90;;;4.47;;
2416;SDS011;1219;48.736;9.330;2022-07-29T12:09:49;5.50;;;4.73;;
2416;SDS011;1219;48.736;9.330;2022-07-29T12:12:16;6.03;;;5.43;;
2416;SDS011;1219;48.736;9.330;2022-07-29T12:14:42;5.23;;;4.90;;
2416;SDS011;1219;48.736;9.330;2022-07-29T12:17:33;5.63;;;5.13;;
2416;SDS011;1219;48.736;9.330;2022-07-29T12:19:59;5.57;;;5.17;;
2416;SDS011;1219;48.736;9.330;2022-07-29T12:22:28;4.83;;;4.53;;
2416;SDS011;1219;48.736;9.330;2022-07-29T12:24:55;7.17;;;5.00;;
2416;SDS011;1219;48.736;9.330;2022-07-29T12:27:21;5.43;;;4.87;;
2416;SDS011;1219;48.736;9.330;2022-07-29T12:29:57;6.67;;;4.30;;
2416;SDS011;1219;48.736;9.330;2022-07-29T12:32:30;5.80;;;5.30;;
2416;SDS011;1219;48.736;9.330;2022-07-29T12:34:56;8.30;;;5.23;;
2416;SDS011;1219;48.736;9.330;2022-07-29T12:37:22;5.30;;;4.90;;
2416;SDS011;1219;48.736;9.330;2022-07-29T12:39:51;6.37;;;5.30;;
2416;SDS011;1219;48.736;9.330;2022-07-29T12:42:17;5.77;;;4.30;;
2416;SDS011;1219;48.736;9.330;2022-07-29T12:44:47;4.97;;;4.57;;
2416;SDS011;1219;48.736;9.330;2022-07-29T12:47:13;7.07;;;6.43;;
2416;SDS011;1219;48.736;9.330;2022-07-29T12:49:39;5.77;;;5.30;;
2416;SDS011;1219;48.736;9.330;2022-07-29T12:54:51;6.97;;;6.00;;
2416;SDS011;1219;48.736;9.330;2022-07-29T12:57:17;7.03;;;6.17;;
2416;SDS011;1219;48.736;9.330;2022-07-29T12:59:43;6.47;;;5.83;;
2416;SDS011;1219;48.736;9.330;2022-07-29T13:02:20;5.50;;;4.83;;
2416;SDS011;1219;48.736;9.330;2022-07-29T13:04:54;4.80;;;4.47;;
2416;SDS011;1219;48.736;9.330;2022-07-29T13:07:25;7.53;;;5.27;;
2416;SDS011;1219;48.736;9.330;2022-07-29T13:09:52;6.30;;;5.77;;
2416;SDS011;1219;48.736;9.330;2022-07-29T13:12:18;9.80;;;5.17;;
2416;SDS011;1219;48.736;9.330;2022-07-29T13:14:46;5.63;;;5.23;;
2416;SDS011;1219;48.736;9.330;2022-07-29T13:19:46;4.57;;;4.27;;
2416;SDS011;1219;48.736;9.330;2022-07-29T13:22:16;5.80;;;5.40;;
2416;SDS011;1219;48.736;9.330;2022-07-29T13:24:56;6.13;;;5.63;;
2416;SDS011;1219;48.736;9.330;2022-07-29T13:27:23;5.50;;;5.00;;
2416;SDS011;1219;48.736;9.330;2022-07-29T13:29:49;5.97;;;5.57;;
2416;SDS011;1219;48.736;9.330;2022-07-29T13:32:21;8.60;;;6.83;;
2416;SDS011;1219;48.736;9.330;2022-07-29T13:34:47;7.63;;;7.00;;
2416;SDS011;1219;48.736;9.330;2022-07-29T13:37:13;8.37;;;7.50;;
2416;SDS011;1219;48.736;9.330;2022-07-29T13:39:39;10.77;;;8.10;;
2416;SDS011;1219;48.736;9.330;2022-07-29T13:42:06;8.50;;;7.63;;
2416;SDS011;1219;48.736;9.330;2022-07-29T13:44:32;7.47;;;6.77;;
2416;SDS011;1219;48.736;9.330;2022-07-29T13:46:58;8.77;;;8.00;;
2416;SDS011;1219;48.736;9.330;2022-07-29T13:49:25;9.50;;;8.50;;
2416;SDS011;1219;48.736;9.330;2022-07-29T13:51:51;8.30;;;7.47;;
2416;SDS011;1219;48.736;9.330;2022-07-29T13:54:17;7.53;;;6.57;;
2416;SDS011;1219;48.736;9.330;2022-07-29T13:56:43;7.30;;;6.70;;
2416;SDS011;1219;48.736;9.330;2022-07-29T13:59:09;8.97;;;7.27;;
2416;SDS011;1219;48.736;9.330;2022-07-29T14:01:35;5.53;;;5.00;;
2416;SDS011;1219;48.736;9.330;2022-07-29T14:04:01;7.00;;;6.40;;
2416;SDS011;1219;48.736;9.330;2022-07-29T14:06:27;7.10;;;6.60;;
2416;SDS011;1219;48.736;9.330;2022-07-29T14:08:53;7.50;;;6.80;;
2416;SDS011;1219;48.736;9.330;2022-07-29T14:11:19;8.03;;;6.33;;
2416;SDS011;1219;48.736;9.330;2022-07-29T14:13:45;6.43;;;5.90;;
2416;SDS011;1219;48.736;9.330;2022-07-29T14:16:11;6.43;;;5.83;;
2416;SDS011;1219;48.736;9.330;2022-07-29T14:18:37;10.53;;;6.70;;
2416;SDS011;1219;48.736;9.330;2022-07-29T14:21:03;8.60;;;6.73;;
2416;SDS011;1219;48.736;9.330;2022-07-29T14:23:29;7.77;;;6.70;;
2416;SDS011;1219;48.736;9.330;2022-07-29T14:25:55;6.67;;;6.07;;
2416;SDS011;1219;48.736;9.330;2022-07-29T14:28:21;6.70;;;6.20;;
2416;SDS011;1219;48.736;9.330;2022-07-29T14:30:47;6.70;;;5.70;;
2416;SDS011;1219;48.736;9.330;2022-07-29T14:33:13;6.23;;;5.80;;
2416;SDS011;1219;48.736;9.330;2022-07-29T14:35:39;5.13;;;4.70;;
2416;SDS011;1219;48.736;9.330;2022-07-29T14:38:05;5.67;;;5.10;;
2416;SDS011;1219;48.736;9.330;2022-07-29T14:40:31;5.80;;;5.17;;
2416;SDS011;1219;48.736;9.330;2022-07-29T14:42:57;8.70;;;5.57;;
2416;SDS011;1219;48.736;9.330;2022-07-29T14:45:23;7.03;;;6.43;;
2416;SDS011;1219;48.736;9.330;2022-07-29T14:47:49;6.27;;;5.87;;
2416;SDS011;1219;48.736;9.330;2022-07-29T14:50:15;7.43;;;6.23;;
2416;SDS011;1219;48.736;9.330;2022-07-29T14:52:43;7.50;;;6.90;;
2416;SDS011;1219;48.736;9.330;2022-07-29T14:55:09;6.97;;;6.47;;
2416;SDS011;1219;48.736;9.330;2022-07-29T14:57:35;8.03;;;7.23;;
2416;SDS011;1219;48.736;9.330;2022-07-29T15:00:01;6.27;;;5.87;;
2416;SDS011;1219;48.736;9.330;2022-07-29T15:02:27;7.10;;;6.50;;
2416;SDS011;1219;48.736;9.330;2022-07-29T15:04:53;6.30;;;5.90;;
2416;SDS011;1219;48.736;9.330;2022-07-29T15:07:19;6.47;;;6.00;;
2416;SDS011;1219;48.736;9.330;2022-07-29T15:09:45;7.40;;;6.80;;
2416;SDS011;1219;48.736;9.330;2022-07-29T15:12:11;7.40;;;6.67;;
2416;SDS011;1219;48.736;9.330;2022-07-29T15:14:37;7.03;;;6.33;;
2416;SDS011;1219;48.736;9.330;2022-07-29T15:17:03;6.50;;;6.00;;
2416;SDS011;1219;48.736;9.330;2022-07-29T15:19:29;8.73;;;6.77;;
2416;SDS011;1219;48.736;9.330;2022-07-29T15:21:55;7.10;;;6.50;;
2416;SDS011;1219;48.736;9.330;2022-07-29T15:24:21;6.83;;;6.23;;
2416;SDS011;1219;48.736;9.330;2022-07-29T15:26:47;7.53;;;6.90;;
2416;SDS011;1219;48.736;9.330;2022-07-29T15:29:14;7.70;;;7.03;;
2416;SDS011;1219;48.736;9.330;2022-07-29T15:31:40;8.70;;;7.47;;
2416;SDS011;1219;48.736;9.330;2022-07-29T15:34:06;8.73;;;8.00;;
2416;SDS011;1219;48.736;9.330;2022-07-29T15:36:32;8.10;;;7.40;;
2416;SDS011;1219;48.736;9.330;2022-07-29T15:38:58;6.73;;;6.23;;
2416;SDS011;1219;48.736;9.330;2022-07-29T15:41:24;7.80;;;7.07;;
2416;SDS011;1219;48.736;9.330;2022-07-29T15:43:50;7.50;;;6.80;;
2416;SDS011;1219;48.736;9.330;2022-07-29T15:46:17;6.93;;;6.33;;
2416;SDS011;1219;48.736;9.330;2022-07-29T15:49:02;7.80;;;7.20;;
2416;SDS011;1219;48.736;9.330;2022-07-29T15:51:28;9.37;;;7.43;;
2416;SDS011;1219;48.736;9.330;2022-07-29T15:53:54;7.57;;;6.80;;
2416;SDS011;1219;48.736;9.330;2022-07-29T15:56:20;7.17;;;6.50;;
2416;SDS011;1219;48.736;9.330;2022-07-29T15:58:46;6.60;;;6.20;;
2416;SDS011;1219;48.736;9.330;2022-07-29T16:01:12;6.93;;;6.37;;
2416;SDS011;1219;48.736;9.330;2022-07-29T16:03:38;7.80;;;6.70;;
2416;SDS011;1219;48.736;9.330;2022-07-29T16:06:04;7.10;;;6.50;;